sensor_id;sensor_type;location;lat;lon;timestamp;pressure;altitude;pressure_sealevel;temperature;humidity
51287;BME280;37364;46.974;18.916;2022-10-16T00:00:41;153775.94;;;13.59;100.00
51287;BME280;37364;46.974;18.916;2022-10-16T00:03:12;153761.66;;;13.54;100.00
51287;BME280;37364;46.974;18.916;2022-10-16T00:05:43;153721.47;;;13.38;100.00
51287;BME280;37364;46.974;18.916;2022-10-16T00:08:13;153738.31;;;13.44;100.00
51287;BME280;37364;46.974;18.916;2022-10-16T00:10:46;153740.94;;;13.45;100.00
51287;BME280;37364;46.974;18.916;2022-10-16T00:13:17;153727.94;;;13.40;100.00
51287;BME280;37364;46.974;18.916;2022-10-16T00:15:47;153718.91;;;13.37;100.00
51287;BME280;37364;46.974;18.916;2022-10-16T00:18:18;153696.75;;;13.28;100.00
51287;BME280;37364;46.974;18.916;2022-10-16T00:20:48;153703.28;;;13.31;100.00
51287;BME280;37364;46.974;18.916;2022-10-16T00:23:19;153691.56;;;13.26;100.00
51287;BME280;37364;46.974;18.916;2022-10-16T00:26:00;153676.03;;;13.20;100.00
51287;BME280;37364;46.974;18.916;2022-10-16T00:28:31;153677.31;;;13.20;100.00
51287;BME280;37364;46.974;18.916;2022-10-16T00:31:06;153673.41;;;13.19;100.00
51287;BME280;37364;46.974;18.916;2022-10-16T00:33:37;153663.03;;;13.15;100.00
51287;BME280;37364;46.974;18.916;2022-10-16T00:36:11;153669.53;;;13.17;100.00
51287;BME280;37364;46.974;18.916;2022-10-16T00:38:41;153682.50;;;13.22;100.00
51287;BME280;37364;46.974;18.916;2022-10-16T00:41:16;153647.47;;;13.09;100.00
51287;BME280;37364;46.974;18.916;2022-10-16T00:43:48;153629.28;;;13.01;100.00
51287;BME280;37364;46.974;18.916;2022-10-16T00:46:22;153616.34;;;12.96;100.00
51287;BME280;37364;46.974;18.916;2022-10-16T00:48:59;153609.88;;;12.94;100.00
51287;BME280;37364;46.974;18.916;2022-10-16T00:51:32;153599.47;;;12.90;100.00
51287;BME280;37364;46.974;18.916;2022-10-16T00:54:06;153585.25;;;12.84;100.00
51287;BME280;37364;46.974;18.916;2022-10-16T00:56:41;153574.81;;;12.80;100.00
51287;BME280;37364;46.974;18.916;2022-10-16T00:59:15;153572.25;;;12.79;100.00
51287;BME280;37364;46.974;18.916;2022-10-16T01:01:46;153559.28;;;12.74;100.00
51287;BME280;37364;46.974;18.916;2022-10-16T01:04:16;153513.91;;;12.56;100.00
51287;BME280;37364;46.974;18.916;2022-10-16T01:06:52;153529.47;;;12.62;100.00
51287;BME280;37364;46.974;18.916;2022-10-16T01:09:29;153546.34;;;12.69;100.00
51287;BME280;37364;46.974;18.916;2022-10-16T01:12:10;153526.88;;;12.61;100.00
51287;BME280;37364;46.974;18.916;2022-10-16T01:14:48;153521.69;;;12.59;100.00
51287;BME280;37364;46.974;18.916;2022-10-16T01:17:30;153503.53;;;12.52;100.00
51287;BME280;37364;46.974;18.916;2022-10-16T01:20:08;153502.25;;;12.51;100.00
51287;BME280;37364;46.974;18.916;2022-10-16T01:22:50;153497.06;;;12.49;100.00
51287;BME280;37364;46.974;18.916;2022-10-16T01:25:31;153494.44;;;12.48;100.00
51287;BME280;37364;46.974;18.916;2022-10-16T01:28:10;153500.97;;;12.51;100.00
51287;BME280;37364;46.974;18.916;2022-10-16T01:30:42;153467.25;;;12.37;100.00
51287;BME280;37364;46.974;18.916;2022-10-16T01:33:17;153438.72;;;12.26;100.00
51287;BME280;37364;46.974;18.916;2022-10-16T01:35:53;153419.28;;;12.18;100.00
51287;BME280;37364;46.974;18.916;2022-10-16T01:38:28;153427.06;;;12.21;100.00
51287;BME280;37364;46.974;18.916;2022-10-16T01:41:03;153429.63;;;12.22;100.00
51287;BME280;37364;46.974;18.916;2022-10-16T01:43:40;153406.28;;;12.13;100.00
51287;BME280;37364;46.974;18.916;2022-10-16T01:46:13;153393.38;;;12.08;100.00
51287;BME280;37364;46.974;18.916;2022-10-16T01:48:46;153393.38;;;12.08;100.00
51287;BME280;37364;46.974;18.916;2022-10-16T01:51:17;153408.91;;;12.14;100.00
51287;BME280;37364;46.974;18.916;2022-10-16T01:53:52;153381.66;;;12.03;100.00
51287;BME280;37364;46.974;18.916;2022-10-16T01:56:24;153358.38;;;11.94;100.00
51287;BME280;37364;46.974;18.916;2022-10-16T01:59:01;153364.84;;;11.97;100.00
51287;BME280;37364;46.974;18.916;2022-10-16T02:01:35;153346.69;;;11.90;100.00
51287;BME280;37364;46.974;18.916;2022-10-16T02:04:11;153357.09;;;11.94;100.00
51287;BME280;37364;46.974;18.916;2022-10-16T02:06:43;153349.28;;;11.91;100.00
51287;BME280;37364;46.974;18.916;2022-10-16T02:09:13;153344.06;;;11.88;100.00
51287;BME280;37364;46.974;18.916;2022-10-16T02:11:44;153312.97;;;11.76;100.00
51287;BME280;37364;46.974;18.916;2022-10-16T02:14:20;153301.28;;;11.72;100.00
51287;BME280;37364;46.974;18.916;2022-10-16T02:16:52;153292.22;;;11.68;100.00
51287;BME280;37364;46.974;18.916;2022-10-16T02:19:22;153306.47;;;11.74;100.00
51287;BME280;37364;46.974;18.916;2022-10-16T02:21:56;153297.38;;;11.70;100.00
51287;BME280;37364;46.974;18.916;2022-10-16T02:24:33;153287.03;;;11.66;100.00
51287;BME280;37364;46.974;18.916;2022-10-16T02:27:10;153266.31;;;11.58;100.00
51287;BME280;37364;46.974;18.916;2022-10-16T02:29:47;153261.13;;;11.56;100.00
51287;BME280;37364;46.974;18.916;2022-10-16T02:32:21;153248.19;;;11.51;100.00
51287;BME280;37364;46.974;18.916;2022-10-16T02:34:54;153235.22;;;11.45;100.00
51287;BME280;37364;46.974;18.916;2022-10-16T02:37:25;153219.69;;;11.39;100.00
51287;BME280;37364;46.974;18.916;2022-10-16T02:39:58;153215.78;;;11.38;100.00
51287;BME280;37364;46.974;18.916;2022-10-16T02:42:33;153236.50;;;11.46;100.00
51287;BME280;37364;46.974;18.916;2022-10-16T02:45:09;153228.75;;;11.43;100.00
51287;BME280;37364;46.974;18.916;2022-10-16T02:47:42;153169.16;;;11.19;100.00
51287;BME280;37364;46.974;18.916;2022-10-16T02:50:13;153170.47;;;11.20;100.00
51287;BME280;37364;46.974;18.916;2022-10-16T02:52:43;153182.09;;;11.24;100.00
51287;BME280;37364;46.974;18.916;2022-10-16T02:55:13;153198.97;;;11.31;100.00
51287;BME280;37364;46.974;18.916;2022-10-16T02:57:44;153170.47;;;11.20;100.00
51287;BME280;37364;46.974;18.916;2022-10-16T03:00:17;153179.53;;;11.23;100.00
51287;BME280;37364;46.974;18.916;2022-10-16T03:02:47;153170.47;;;11.20;100.00
51287;BME280;37364;46.974;18.916;2022-10-16T03:05:17;153144.56;;;11.10;100.00
51287;BME280;37364;46.974;18.916;2022-10-16T03:08:08;153131.59;;;11.04;100.00
51287;BME280;37364;46.974;18.916;2022-10-16T03:10:38;153143.22;;;11.09;100.00
51287;BME280;37364;46.974;18.916;2022-10-16T03:13:09;153136.78;;;11.06;100.00
51287;BME280;37364;46.974;18.916;2022-10-16T03:15:43;153130.31;;;11.04;100.00
51287;BME280;37364;46.974;18.916;2022-10-16T03:18:13;153157.47;;;11.15;100.00
51287;BME280;37364;46.974;18.916;2022-10-16T03:20:43;153179.53;;;11.23;100.00
51287;BME280;37364;46.974;18.916;2022-10-16T03:23:14;153138.06;;;11.07;100.00
51287;BME280;37364;46.974;18.916;2022-10-16T03:25:44;153139.38;;;11.07;100.00
51287;BME280;37364;46.974;18.916;2022-10-16T03:28:14;153134.22;;;11.05;100.00
51287;BME280;37364;46.974;18.916;2022-10-16T03:30:50;153122.53;;;11.01;100.00
51287;BME280;37364;46.974;18.916;2022-10-16T03:33:20;153100.53;;;10.92;100.00
51287;BME280;37364;46.974;18.916;2022-10-16T03:35:51;153090.16;;;10.88;100.00
51287;BME280;37364;46.974;18.916;2022-10-16T03:38:22;153055.22;;;10.74;100.00
51287;BME280;37364;46.974;18.916;2022-10-16T03:40:52;153069.41;;;10.80;100.00
51287;BME280;37364;46.974;18.916;2022-10-16T03:43:23;153048.69;;;10.72;100.00
51287;BME280;37364;46.974;18.916;2022-10-16T03:45:56;153046.13;;;10.71;100.00
51287;BME280;37364;46.974;18.916;2022-10-16T03:48:26;153051.31;;;10.73;100.00
51287;BME280;37364;46.974;18.916;2022-10-16T03:50:56;153021.53;;;10.61;100.00
51287;BME280;37364;46.974;18.916;2022-10-16T03:53:26;153028.00;;;10.63;100.00
51287;BME280;37364;46.974;18.916;2022-10-16T03:55:56;153029.28;;;10.64;100.00
51287;BME280;37364;46.974;18.916;2022-10-16T03:58:27;153024.09;;;10.62;100.00
51287;BME280;37364;46.974;18.916;2022-10-16T04:01:00;153012.47;;;10.57;100.00
51287;BME280;37364;46.974;18.916;2022-10-16T04:03:31;153017.63;;;10.59;100.00
51287;BME280;37364;46.974;18.916;2022-10-16T04:06:01;153012.47;;;10.57;100.00
51287;BME280;37364;46.974;18.916;2022-10-16T04:08:31;153016.34;;;10.59;100.00
51287;BME280;37364;46.974;18.916;2022-10-16T04:11:03;153004.66;;;10.54;100.00
51287;BME280;37364;46.974;18.916;2022-10-16T04:13:34;152998.22;;;10.52;100.00
51287;BME280;37364;46.974;18.916;2022-10-16T04:16:07;152993.03;;;10.49;100.00
51287;BME280;37364;46.974;18.916;2022-10-16T04:18:37;152986.59;;;10.47;100.00
51287;BME280;37364;46.974;18.916;2022-10-16T04:21:08;152999.50;;;10.52;100.00
51287;BME280;37364;46.974;18.916;2022-10-16T04:23:39;152996.94;;;10.51;100.00
51287;BME280;37364;46.974;18.916;2022-10-16T04:26:09;152982.69;;;10.45;100.00
51287;BME280;37364;46.974;18.916;2022-10-16T04:28:40;152982.69;;;10.45;100.00
51287;BME280;37364;46.974;18.916;2022-10-16T04:31:12;152977.50;;;10.43;100.00
51287;BME280;37364;46.974;18.916;2022-10-16T04:33:43;152986.59;;;10.47;100.00
51287;BME280;37364;46.974;18.916;2022-10-16T04:36:13;152986.59;;;10.47;100.00
51287;BME280;37364;46.974;18.916;2022-10-16T04:38:43;152986.59;;;10.47;100.00
51287;BME280;37364;46.974;18.916;2022-10-16T04:41:13;152981.41;;;10.45;100.00
51287;BME280;37364;46.974;18.916;2022-10-16T04:43:43;152972.34;;;10.41;100.00
51287;BME280;37364;46.974;18.916;2022-10-16T04:46:17;152954.19;;;10.34;100.00
51287;BME280;37364;46.974;18.916;2022-10-16T04:48:47;152934.72;;;10.26;100.00
51287;BME280;37364;46.974;18.916;2022-10-16T04:51:17;152933.44;;;10.26;100.00
51287;BME280;37364;46.974;18.916;2022-10-16T04:53:48;152941.22;;;10.29;100.00
51287;BME280;37364;46.974;18.916;2022-10-16T04:56:18;152928.28;;;10.24;100.00
51287;BME280;37364;46.974;18.916;2022-10-16T04:58:49;152929.56;;;10.24;100.00
51287;BME280;37364;46.974;18.916;2022-10-16T05:01:21;152912.75;;;10.18;100.00
51287;BME280;37364;46.974;18.916;2022-10-16T05:03:52;152903.69;;;10.14;100.00
51287;BME280;37364;46.974;18.916;2022-10-16T05:06:22;152914.03;;;10.18;100.00
51287;BME280;37364;46.974;18.916;2022-10-16T05:08:53;152916.63;;;10.19;100.00
51287;BME280;37364;46.974;18.916;2022-10-16T05:11:24;152914.03;;;10.18;100.00
51287;BME280;37364;46.974;18.916;2022-10-16T05:13:54;152914.03;;;10.18;100.00
51287;BME280;37364;46.974;18.916;2022-10-16T05:16:27;152911.41;;;10.17;100.00
51287;BME280;37364;46.974;18.916;2022-10-16T05:19:00;152914.03;;;10.18;100.00
51287;BME280;37364;46.974;18.916;2022-10-16T05:21:50;152907.56;;;10.16;100.00
51287;BME280;37364;46.974;18.916;2022-10-16T05:24:21;152919.19;;;10.20;100.00
51287;BME280;37364;46.974;18.916;2022-10-16T05:26:51;152910.13;;;10.17;100.00
51287;BME280;37364;46.974;18.916;2022-10-16T05:29:22;152917.91;;;10.20;100.00
51287;BME280;37364;46.974;18.916;2022-10-16T05:31:55;152921.81;;;10.21;100.00
51287;BME280;37364;46.974;18.916;2022-10-16T05:34:26;152919.19;;;10.20;100.00
51287;BME280;37364;46.974;18.916;2022-10-16T05:36:57;152910.13;;;10.17;100.00
51287;BME280;37364;46.974;18.916;2022-10-16T05:39:27;152929.56;;;10.24;100.00
51287;BME280;37364;46.974;18.916;2022-10-16T05:41:58;152923.09;;;10.22;100.00
51287;BME280;37364;46.974;18.916;2022-10-16T05:44:28;152920.47;;;10.21;100.00
51287;BME280;37364;46.974;18.916;2022-10-16T05:47:02;152929.56;;;10.24;100.00
51287;BME280;37364;46.974;18.916;2022-10-16T05:49:32;152923.09;;;10.22;100.00
51287;BME280;37364;46.974;18.916;2022-10-16T05:52:07;152943.84;;;10.30;100.00
51287;BME280;37364;46.974;18.916;2022-10-16T05:54:37;152941.22;;;10.29;100.00
51287;BME280;37364;46.974;18.916;2022-10-16T05:57:07;152937.34;;;10.27;100.00
51287;BME280;37364;46.974;18.916;2022-10-16T05:59:37;152943.84;;;10.30;100.00
51287;BME280;37364;46.974;18.916;2022-10-16T06:02:12;152942.50;;;10.29;100.00
51287;BME280;37364;46.974;18.916;2022-10-16T06:04:42;152963.25;;;10.38;100.00
51287;BME280;37364;46.974;18.916;2022-10-16T06:07:13;152964.53;;;10.38;100.00
51287;BME280;37364;46.974;18.916;2022-10-16T06:09:43;152981.41;;;10.45;100.00
51287;BME280;37364;46.974;18.916;2022-10-16T06:12:13;153003.38;;;10.54;100.00
51287;BME280;37364;46.974;18.916;2022-10-16T06:14:45;153018.91;;;10.60;100.00
51287;BME280;37364;46.974;18.916;2022-10-16T06:17:18;153020.19;;;10.60;100.00
51287;BME280;37364;46.974;18.916;2022-10-16T06:19:49;153048.69;;;10.72;100.00
51287;BME280;37364;46.974;18.916;2022-10-16T06:22:19;153077.19;;;10.83;100.00
51287;BME280;37364;46.974;18.916;2022-10-16T06:24:49;153090.16;;;10.88;100.00
51287;BME280;37364;46.974;18.916;2022-10-16T06:27:19;153103.09;;;10.93;100.00
51287;BME280;37364;46.974;18.916;2022-10-16T06:29:50;153108.28;;;10.95;100.00
51287;BME280;37364;46.974;18.916;2022-10-16T06:32:24;153126.41;;;11.02;100.00
51287;BME280;37364;46.974;18.916;2022-10-16T06:34:54;153144.56;;;11.10;100.00
51287;BME280;37364;46.974;18.916;2022-10-16T06:37:25;153157.47;;;11.15;100.00
51287;BME280;37364;46.974;18.916;2022-10-16T06:39:55;153170.47;;;11.20;100.00
51287;BME280;37364;46.974;18.916;2022-10-16T06:42:27;153215.78;;;11.38;100.00
51287;BME280;37364;46.974;18.916;2022-10-16T06:44:57;153237.78;;;11.46;100.00
51287;BME280;37364;46.974;18.916;2022-10-16T06:47:31;153262.41;;;11.56;100.00
51287;BME280;37364;46.974;18.916;2022-10-16T06:50:01;153290.94;;;11.67;100.00
51287;BME280;37364;46.974;18.916;2022-10-16T06:52:33;153297.38;;;11.70;100.00
51287;BME280;37364;46.974;18.916;2022-10-16T06:55:05;153309.06;;;11.75;100.00
51287;BME280;37364;46.974;18.916;2022-10-16T06:57:35;153331.09;;;11.83;100.00
51287;BME280;37364;46.974;18.916;2022-10-16T07:00:06;153354.47;;;11.93;100.00
51287;BME280;37364;46.974;18.916;2022-10-16T07:02:39;153376.50;;;12.01;100.00
51287;BME280;37364;46.974;18.916;2022-10-16T07:05:09;153380.38;;;12.03;100.00
51287;BME280;37364;46.974;18.916;2022-10-16T07:07:40;153395.94;;;12.09;100.00
51287;BME280;37364;46.974;18.916;2022-10-16T07:10:10;153421.88;;;12.19;100.00
51287;BME280;37364;46.974;18.916;2022-10-16T07:12:40;153429.63;;;12.22;100.00
51287;BME280;37364;46.974;18.916;2022-10-16T07:15:12;153460.72;;;12.35;100.00
51287;BME280;37364;46.974;18.916;2022-10-16T07:17:46;153495.78;;;12.49;100.00
51287;BME280;37364;46.974;18.916;2022-10-16T07:20:16;153515.19;;;12.56;100.00
51287;BME280;37364;46.974;18.916;2022-10-16T07:22:47;153535.97;;;12.64;100.00
51287;BME280;37364;46.974;18.916;2022-10-16T07:25:17;153538.53;;;12.65;100.00
51287;BME280;37364;46.974;18.916;2022-10-16T07:27:47;153538.53;;;12.65;100.00
51287;BME280;37364;46.974;18.916;2022-10-16T07:30:17;153561.91;;;12.75;100.00
51287;BME280;37364;46.974;18.916;2022-10-16T07:32:50;153582.63;;;12.83;100.00
51287;BME280;37364;46.974;18.916;2022-10-16T07:35:20;153604.72;;;12.92;100.00
51287;BME280;37364;46.974;18.916;2022-10-16T07:37:50;153618.94;;;12.97;100.00
51287;BME280;37364;46.974;18.916;2022-10-16T07:40:23;153660.47;;;13.14;100.00
51287;BME280;37364;46.974;18.916;2022-10-16T07:42:53;153682.50;;;13.22;100.00
51287;BME280;37364;46.974;18.916;2022-10-16T07:45:24;153696.75;;;13.28;100.00
51287;BME280;37364;46.974;18.916;2022-10-16T07:47:57;153755.19;;;13.51;100.00
51287;BME280;37364;46.974;18.916;2022-10-16T07:50:27;153765.56;;;13.55;100.00
51287;BME280;37364;46.974;18.916;2022-10-16T07:52:57;153792.78;;;13.66;100.00
51287;BME280;37364;46.974;18.916;2022-10-16T07:55:27;153799.31;;;13.69;100.00
51287;BME280;37364;46.974;18.916;2022-10-16T07:57:57;153843.44;;;13.86;100.00
51287;BME280;37364;46.974;18.916;2022-10-16T08:00:29;153877.13;;;13.99;100.00
51287;BME280;37364;46.974;18.916;2022-10-16T08:03:03;153903.13;;;14.10;100.00
51287;BME280;37364;46.974;18.916;2022-10-16T08:05:33;153926.47;;;14.19;100.00
51287;BME280;37364;46.974;18.916;2022-10-16T08:08:04;153929.09;;;14.20;100.00
51287;BME280;37364;46.974;18.916;2022-10-16T08:10:34;153951.13;;;14.29;100.00
51287;BME280;37364;46.974;18.916;2022-10-16T08:13:04;153969.31;;;14.36;100.00
51287;BME280;37364;46.974;18.916;2022-10-16T08:15:35;153993.97;;;14.46;100.00
51287;BME280;37364;46.974;18.916;2022-10-16T08:18:09;154005.66;;;14.50;100.00
51287;BME280;37364;46.974;18.916;2022-10-16T08:20:40;154047.28;;;14.67;100.00
51287;BME280;37364;46.974;18.916;2022-10-16T08:23:11;154077.13;;;14.78;100.00
51287;BME280;37364;46.974;18.916;2022-10-16T08:25:42;154103.09;;;14.89;100.00
51287;BME280;37364;46.974;18.916;2022-10-16T08:28:12;154129.06;;;14.99;100.00
51287;BME280;37364;46.974;18.916;2022-10-16T08:30:42;154153.72;;;15.09;100.00
51287;BME280;37364;46.974;18.916;2022-10-16T08:33:16;154179.69;;;15.19;99.59
51287;BME280;37364;46.974;18.916;2022-10-16T08:35:50;154227.78;;;15.38;99.22
51287;BME280;37364;46.974;18.916;2022-10-16T08:38:21;154252.47;;;15.48;98.86
51287;BME280;37364;46.974;18.916;2022-10-16T08:40:54;154307.03;;;15.69;98.50
51287;BME280;37364;46.974;18.916;2022-10-16T08:43:41;154265.47;;;15.53;96.32
51287;BME280;37364;46.974;18.916;2022-10-16T08:46:32;154294.00;;;15.64;97.34
51287;BME280;37364;46.974;18.916;2022-10-16T08:49:16;154326.56;;;15.77;97.44
51287;BME280;37364;46.974;18.916;2022-10-16T08:51:48;154314.84;;;15.72;93.58
51287;BME280;37364;46.974;18.916;2022-10-16T08:54:28;154351.25;;;15.87;95.63
51287;BME280;37364;46.974;18.916;2022-10-16T08:57:09;154356.44;;;15.89;94.41
51287;BME280;37364;46.974;18.916;2022-10-16T08:59:49;154396.72;;;16.05;96.74
51287;BME280;37364;46.974;18.916;2022-10-16T09:02:27;154446.13;;;16.24;94.63
51287;BME280;37364;46.974;18.916;2022-10-16T09:05:23;154426.63;;;16.16;91.80
51287;BME280;37364;46.974;18.916;2022-10-16T09:08:03;154474.72;;;16.35;93.74
51287;BME280;37364;46.974;18.916;2022-10-16T09:10:46;154486.41;;;16.40;93.11
51287;BME280;37364;46.974;18.916;2022-10-16T09:13:25;154505.91;;;16.48;90.58
51287;BME280;37364;46.974;18.916;2022-10-16T09:16:04;154517.59;;;16.52;92.39
51287;BME280;37364;46.974;18.916;2022-10-16T09:18:48;154534.50;;;16.59;89.11
51287;BME280;37364;46.974;18.916;2022-10-16T09:21:26;154546.19;;;16.64;89.25
51287;BME280;37364;46.974;18.916;2022-10-16T09:23:59;154590.41;;;16.81;89.88
51287;BME280;37364;46.974;18.916;2022-10-16T09:26:35;154586.50;;;16.79;87.47
51287;BME280;37364;46.974;18.916;2022-10-16T09:29:05;154629.47;;;16.96;88.74
51287;BME280;37364;46.974;18.916;2022-10-16T09:31:37;154652.91;;;17.06;88.99
51287;BME280;37364;46.974;18.916;2022-10-16T09:34:15;154650.28;;;17.05;87.48
51287;BME280;37364;46.974;18.916;2022-10-16T09:36:51;154676.25;;;17.15;85.59
51287;BME280;37364;46.974;18.916;2022-10-16T09:39:21;154681.47;;;17.17;86.62
51287;BME280;37364;46.974;18.916;2022-10-16T09:41:52;154681.47;;;17.17;86.84
51287;BME280;37364;46.974;18.916;2022-10-16T09:44:24;154732.22;;;17.37;86.44
51287;BME280;37364;46.974;18.916;2022-10-16T09:47:03;154745.19;;;17.42;86.40
51287;BME280;37364;46.974;18.916;2022-10-16T09:49:33;154792.06;;;17.61;83.66
51287;BME280;37364;46.974;18.916;2022-10-16T09:52:13;154820.66;;;17.72;83.25
51287;BME280;37364;46.974;18.916;2022-10-16T09:54:50;154867.56;;;17.90;84.97
51287;BME280;37364;46.974;18.916;2022-10-16T09:57:21;154851.94;;;17.84;84.76
51287;BME280;37364;46.974;18.916;2022-10-16T09:59:53;154870.13;;;17.91;82.56
51287;BME280;37364;46.974;18.916;2022-10-16T10:02:29;154893.56;;;18.01;82.29
51287;BME280;37364;46.974;18.916;2022-10-16T10:05:00;154941.72;;;18.20;85.37
51287;BME280;37364;46.974;18.916;2022-10-16T10:07:43;154971.66;;;18.31;83.74
51287;BME280;37364;46.974;18.916;2022-10-16T10:10:20;154958.63;;;18.26;81.35
51287;BME280;37364;46.974;18.916;2022-10-16T10:12:51;155013.28;;;18.48;82.26
51287;BME280;37364;46.974;18.916;2022-10-16T10:15:23;155039.31;;;18.58;79.62
51287;BME280;37364;46.974;18.916;2022-10-16T10:17:55;155056.25;;;18.65;81.15
51287;BME280;37364;46.974;18.916;2022-10-16T10:20:27;155096.66;;;18.81;79.50
51287;BME280;37364;46.974;18.916;2022-10-16T10:23:21;155123.97;;;18.91;78.29
51287;BME280;37364;46.974;18.916;2022-10-16T10:25:56;155099.25;;;18.82;78.33
51287;BME280;37364;46.974;18.916;2022-10-16T10:28:49;155134.44;;;18.95;79.30
51287;BME280;37364;46.974;18.916;2022-10-16T10:31:28;155176.09;;;19.12;77.88
51287;BME280;37364;46.974;18.916;2022-10-16T10:34:13;155204.75;;;19.23;76.03
51287;BME280;37364;46.974;18.916;2022-10-16T10:36:49;155155.25;;;19.04;72.61
51287;BME280;37364;46.974;18.916;2022-10-16T10:39:29;155190.41;;;19.17;76.59
51287;BME280;37364;46.974;18.916;2022-10-16T10:42:18;155182.59;;;19.14;76.63
51287;BME280;37364;46.974;18.916;2022-10-16T10:45:16;155268.56;;;19.48;75.34
51287;BME280;37364;46.974;18.916;2022-10-16T10:47:59;155298.53;;;19.60;75.23
51287;BME280;37364;46.974;18.916;2022-10-16T10:50:41;155298.53;;;19.60;75.55
51287;BME280;37364;46.974;18.916;2022-10-16T10:53:21;155325.84;;;19.71;72.35
51287;BME280;37364;46.974;18.916;2022-10-16T10:56:03;155319.34;;;19.68;74.04
51287;BME280;37364;46.974;18.916;2022-10-16T11:01:46;155327.19;;;19.71;73.17
51287;BME280;37364;46.974;18.916;2022-10-16T11:04:34;155357.16;;;19.83;73.64
51287;BME280;37364;46.974;18.916;2022-10-16T11:07:14;155371.47;;;19.89;72.94
51287;BME280;37364;46.974;18.916;2022-10-16T11:09:49;155357.16;;;19.83;72.34
51287;BME280;37364;46.974;18.916;2022-10-16T11:12:27;155394.94;;;19.98;73.09
51287;BME280;37364;46.974;18.916;2022-10-16T11:15:04;155384.53;;;19.94;73.46
51287;BME280;37364;46.974;18.916;2022-10-16T11:17:43;155409.28;;;20.04;69.94
51287;BME280;37364;46.974;18.916;2022-10-16T11:20:19;155447.03;;;20.19;71.12
51287;BME280;37364;46.974;18.916;2022-10-16T11:22:54;155493.97;;;20.37;69.77
51287;BME280;37364;46.974;18.916;2022-10-16T11:25:27;155500.47;;;20.40;69.42
51287;BME280;37364;46.974;18.916;2022-10-16T11:28:03;155495.28;;;20.38;67.68
51287;BME280;37364;46.974;18.916;2022-10-16T11:30:43;155500.47;;;20.40;68.37
51287;BME280;37364;46.974;18.916;2022-10-16T11:33:27;155487.44;;;20.34;69.45
51287;BME280;37364;46.974;18.916;2022-10-16T11:36:06;155505.69;;;20.42;67.56
51287;BME280;37364;46.974;18.916;2022-10-16T11:38:43;155544.78;;;20.57;67.62
51287;BME280;37364;46.974;18.916;2022-10-16T11:41:20;155530.44;;;20.51;68.47
51287;BME280;37364;46.974;18.916;2022-10-16T11:44:09;155547.41;;;20.58;66.14
51287;BME280;37364;46.974;18.916;2022-10-16T11:46:48;155527.88;;;20.50;65.67
51287;BME280;37364;46.974;18.916;2022-10-16T11:49:41;155539.59;;;20.55;67.84
51287;BME280;37364;46.974;18.916;2022-10-16T11:52:19;155583.94;;;20.72;69.22
51287;BME280;37364;46.974;18.916;2022-10-16T11:54:57;155547.41;;;20.58;68.78
51287;BME280;37364;46.974;18.916;2022-10-16T11:57:32;155577.44;;;20.70;67.58
51287;BME280;37364;46.974;18.916;2022-10-16T12:00:10;155552.69;;;20.60;66.50
51287;BME280;37364;46.974;18.916;2022-10-16T12:02:53;155563.09;;;20.64;68.24
51287;BME280;37364;46.974;18.916;2022-10-16T12:05:29;155551.34;;;20.60;70.27
51287;BME280;37364;46.974;18.916;2022-10-16T12:08:08;155547.41;;;20.58;69.00
51287;BME280;37364;46.974;18.916;2022-10-16T12:10:41;155552.69;;;20.60;67.56
51287;BME280;37364;46.974;18.916;2022-10-16T12:13:28;155596.94;;;20.78;67.91
51287;BME280;37364;46.974;18.916;2022-10-16T12:16:21;155572.19;;;20.68;66.69
51287;BME280;37364;46.974;18.916;2022-10-16T12:19:10;155551.34;;;20.60;65.73
51287;BME280;37364;46.974;18.916;2022-10-16T12:21:41;155563.09;;;20.64;67.21
51287;BME280;37364;46.974;18.916;2022-10-16T12:24:24;155587.88;;;20.74;66.40
51287;BME280;37364;46.974;18.916;2022-10-16T12:26:58;155563.09;;;20.64;65.16
51287;BME280;37364;46.974;18.916;2022-10-16T12:29:35;155570.91;;;20.67;66.26
51287;BME280;37364;46.974;18.916;2022-10-16T12:32:24;155574.81;;;20.69;66.46
51287;BME280;37364;46.974;18.916;2022-10-16T12:35:20;155543.50;;;20.57;65.53
51287;BME280;37364;46.974;18.916;2022-10-16T12:37:51;155526.53;;;20.50;65.37
51287;BME280;37364;46.974;18.916;2022-10-16T12:40:27;155523.94;;;20.49;65.30
51287;BME280;37364;46.974;18.916;2022-10-16T12:43:13;155551.34;;;20.60;65.40
51287;BME280;37364;46.974;18.916;2022-10-16T12:46:01;155533.09;;;20.52;66.68
51287;BME280;37364;46.974;18.916;2022-10-16T12:48:34;155522.66;;;20.48;65.25
51287;BME280;37364;46.974;18.916;2022-10-16T12:51:23;155546.09;;;20.58;66.34
51287;BME280;37364;46.974;18.916;2022-10-16T12:54:01;155535.66;;;20.53;66.72
51287;BME280;37364;46.974;18.916;2022-10-16T12:56:40;155560.47;;;20.63;66.18
51287;BME280;37364;46.974;18.916;2022-10-16T12:59:19;155543.50;;;20.57;64.86
51287;BME280;37364;46.974;18.916;2022-10-16T13:02:06;155557.91;;;20.62;65.63
51287;BME280;37364;46.974;18.916;2022-10-16T13:05:02;155551.34;;;20.60;66.26
51287;BME280;37364;46.974;18.916;2022-10-16T13:07:48;155509.59;;;20.43;65.28
51287;BME280;37364;46.974;18.916;2022-10-16T13:10:25;155522.66;;;20.48;63.52
51287;BME280;37364;46.974;18.916;2022-10-16T13:13:29;155521.31;;;20.48;65.12